createdAt,value
2018-09-22T00:00:01.953Z,1022.79081561
2018-09-22T00:00:14.521Z,1022.85854337
2018-09-22T00:00:26.947Z,1022.85854337
2018-09-22T00:00:39.362Z,1022.85854337
2018-09-22T00:00:51.783Z,1022.85854337
2018-09-22T00:01:04.202Z,1022.85854337
2018-09-22T00:01:16.632Z,1022.85854337
2018-09-22T00:01:29.041Z,1022.85854337
2018-09-22T00:01:41.441Z,1022.85854337
2018-09-22T00:01:53.839Z,1022.85854337
2018-09-22T00:02:06.363Z,1022.85854337
2018-09-22T00:02:18.763Z,1022.85854337
2018-09-22T00:02:31.157Z,1022.85854337
2018-09-22T00:02:43.562Z,1022.85854337
2018-09-22T00:02:55.982Z,1022.85854337
2018-09-22T00:03:08.506Z,1022.82467949
2018-09-22T00:03:20.931Z,1022.82467949
2018-09-22T00:03:33.420Z,1022.82467949
2018-09-22T00:03:45.818Z,1022.82467949
2018-09-22T00:03:58.222Z,1022.82467949
2018-09-22T00:04:10.607Z,1022.75695173
2018-09-22T00:04:23.005Z,1022.75695173
2018-09-22T00:04:35.409Z,1022.75695173
2018-09-22T00:04:47.801Z,1022.75695173
2018-09-22T00:05:00.210Z,1022.75695173
2018-09-22T00:05:12.652Z,1022.89240725
2018-09-22T00:05:25.210Z,1022.89240725
2018-09-22T00:05:37.626Z,1022.89240725
2018-09-22T00:05:50.030Z,1022.89240725
2018-09-22T00:06:02.416Z,1022.89240725
2018-09-22T00:06:14.817Z,1022.72308784
2018-09-22T00:06:27.195Z,1022.72308784
2018-09-22T00:06:39.605Z,1022.72308784
2018-09-22T00:06:52.019Z,1022.72308784
2018-09-22T00:07:04.416Z,1022.68922396
2018-09-22T00:07:16.810Z,1022.68922396
2018-09-22T00:07:29.215Z,1022.68922396
2018-09-22T00:07:41.617Z,1022.68922396
2018-09-22T00:07:54.012Z,1022.68922396
2018-09-22T00:08:06.415Z,1022.72308784
2018-09-22T00:08:18.845Z,1022.72308784
2018-09-22T00:08:31.251Z,1022.72308784
2018-09-22T00:08:43.661Z,1022.72308784
2018-09-22T00:08:56.304Z,1022.72308784
2018-09-22T00:09:08.701Z,1022.68922396
2018-09-22T00:09:21.100Z,1022.68922396
2018-09-22T00:09:33.509Z,1022.68922396
2018-09-22T00:09:45.914Z,1022.68922396
2018-09-22T00:09:58.320Z,1022.68922396
2018-09-22T00:10:10.734Z,1022.72308784
2018-09-22T00:10:23.517Z,1022.72308784
2018-09-22T00:10:35.930Z,1022.72308784
2018-09-22T00:10:48.339Z,1022.72308784
2018-09-22T00:11:00.745Z,1022.72308784
2018-09-22T00:11:13.150Z,1022.79081561
2018-09-22T00:11:25.563Z,1022.79081561
2018-09-22T00:11:37.983Z,1022.79081561
2018-09-22T00:11:50.492Z,1022.79081561
2018-09-22T00:12:02.896Z,1022.79081561
2018-09-22T00:12:15.300Z,1022.72308784
2018-09-22T00:12:27.720Z,1022.72308784
2018-09-22T00:12:40.211Z,1022.72308784
2018-09-22T00:12:52.601Z,1022.72308784
2018-09-22T00:13:04.993Z,1022.75695173
2018-09-22T00:13:17.395Z,1022.75695173
2018-09-22T00:13:29.808Z,1022.75695173
2018-09-22T00:13:42.217Z,1022.75695173
2018-09-22T00:13:54.629Z,1022.75695173
2018-09-22T00:14:07.113Z,1022.79081561
2018-09-22T00:14:19.515Z,1022.79081561
2018-09-22T00:14:31.947Z,1022.79081561
2018-09-22T00:14:44.354Z,1022.79081561
2018-09-22T00:14:56.769Z,1022.79081561
2018-09-22T00:15:09.191Z,1022.75695173
2018-09-22T00:15:21.904Z,1022.75695173
2018-09-22T00:15:34.301Z,1022.75695173
2018-09-22T00:15:46.709Z,1022.75695173
2018-09-22T00:15:59.247Z,1022.75695173
2018-09-22T00:16:11.649Z,1022.82467949
2018-09-22T00:16:24.037Z,1022.82467949
2018-09-22T00:16:36.716Z,1022.82467949
2018-09-22T00:16:49.118Z,1022.82467949
2018-09-22T00:17:01.536Z,1022.82467949
2018-09-22T00:17:13.934Z,1022.82467949
2018-09-22T00:17:26.382Z,1022.82467949
2018-09-22T00:17:38.762Z,1022.82467949
2018-09-22T00:17:51.149Z,1022.82467949
2018-09-22T00:18:03.561Z,1022.89240725
2018-09-22T00:18:15.960Z,1022.89240725
2018-09-22T00:18:28.361Z,1022.89240725
2018-09-22T00:18:40.763Z,1022.89240725
2018-09-22T00:18:53.270Z,1022.89240725
2018-09-22T00:19:05.676Z,1022.85854337
2018-09-22T00:19:18.089Z,1022.85854337
2018-09-22T00:19:30.502Z,1022.85854337
2018-09-22T00:19:42.919Z,1022.85854337
2018-09-22T00:19:55.314Z,1022.85854337
2018-09-22T00:20:07.709Z,1022.92627113
2018-09-22T00:20:20.147Z,1022.92627113
2018-09-22T00:20:32.545Z,1022.92627113
2018-09-22T00:20:44.957Z,1022.92627113
2018-09-22T00:20:57.349Z,1022.92627113
2018-09-22T00:21:09.754Z,1022.89240725
2018-09-22T00:21:22.150Z,1022.89240725
2018-09-22T00:21:34.558Z,1022.89240725
2018-09-22T00:21:47.205Z,1022.89240725
2018-09-22T00:22:01.207Z,1022.89240725
2018-09-22T00:22:14.205Z,1022.92627113
2018-09-22T00:22:26.612Z,1022.92627113
2018-09-22T00:22:39.010Z,1022.92627113
2018-09-22T00:22:51.417Z,1022.92627113
2018-09-22T00:23:03.856Z,1023.02786278
2018-09-22T00:23:16.465Z,1023.02786278
2018-09-22T00:23:29.129Z,1023.02786278
2018-09-22T00:23:41.535Z,1023.02786278
2018-09-22T00:23:53.951Z,1023.02786278
2018-09-22T00:24:06.356Z,1022.92627113
2018-09-22T00:24:18.911Z,1022.92627113
2018-09-22T00:24:31.314Z,1022.92627113
2018-09-22T00:24:43.798Z,1022.92627113
2018-09-22T00:24:56.215Z,1022.92627113
2018-09-22T00:25:08.623Z,1022.9939989
2018-09-22T00:25:21.030Z,1022.9939989
2018-09-22T00:25:33.422Z,1022.9939989
2018-09-22T00:25:45.828Z,1022.9939989
2018-09-22T00:25:58.222Z,1022.9939989
2018-09-22T00:26:10.602Z,1023.12945442
2018-09-22T00:26:23.050Z,1023.12945442
2018-09-22T00:26:35.445Z,1023.12945442
2018-09-22T00:26:47.842Z,1023.12945442
2018-09-22T00:27:00.276Z,1023.12945442
2018-09-22T00:27:13.127Z,1023.09559054
2018-09-22T00:27:26.697Z,1023.09559054
2018-09-22T00:27:39.097Z,1023.09559054
2018-09-22T00:27:51.512Z,1023.09559054
2018-09-22T00:28:03.903Z,1023.06172666
2018-09-22T00:28:16.330Z,1023.06172666
2018-09-22T00:28:28.764Z,1023.06172666
2018-09-22T00:28:41.186Z,1023.06172666
2018-09-22T00:28:53.595Z,1023.06172666
2018-09-22T00:29:05.995Z,1023.1633183
2018-09-22T00:29:18.416Z,1023.1633183
2018-09-22T00:29:30.820Z,1023.1633183
2018-09-22T00:29:43.502Z,1023.1633183
2018-09-22T00:29:55.916Z,1023.1633183
2018-09-22T00:30:08.317Z,1023.09559054
2018-09-22T00:30:20.732Z,1023.09559054
2018-09-22T00:30:33.128Z,1023.09559054
2018-09-22T00:30:45.535Z,1023.09559054
2018-09-22T00:30:57.955Z,1023.09559054
2018-09-22T00:31:10.354Z,1023.06172666
2018-09-22T00:31:22.752Z,1023.06172666
2018-09-22T00:31:35.136Z,1023.06172666
2018-09-22T00:31:47.596Z,1023.06172666
2018-09-22T00:31:59.999Z,1023.06172666
2018-09-22T00:32:12.434Z,1023.1633183
2018-09-22T00:32:24.824Z,1023.1633183
2018-09-22T00:32:37.220Z,1023.1633183
2018-09-22T00:32:49.637Z,1023.1633183
2018-09-22T00:33:02.037Z,1023.1633183
2018-09-22T00:33:14.440Z,1023.12945442
2018-09-22T00:33:26.843Z,1023.12945442
2018-09-22T00:33:39.238Z,1023.12945442
2018-09-22T00:33:51.643Z,1023.12945442
2018-09-22T00:34:04.050Z,1023.02786278
2018-09-22T00:34:16.523Z,1023.02786278
2018-09-22T00:34:28.925Z,1023.02786278
2018-09-22T00:34:41.352Z,1023.02786278
2018-09-22T00:34:53.773Z,1023.02786278
2018-09-22T00:35:06.230Z,1023.1633183
2018-09-22T00:35:18.632Z,1023.1633183
2018-09-22T00:35:31.019Z,1023.1633183
2018-09-22T00:35:43.426Z,1023.1633183
2018-09-22T00:35:55.850Z,1023.1633183
2018-09-22T00:36:08.276Z,1023.02786278
2018-09-22T00:36:20.666Z,1023.02786278
2018-09-22T00:36:33.079Z,1023.02786278
2018-09-22T00:36:45.491Z,1023.02786278
2018-09-22T00:36:57.937Z,1023.02786278
2018-09-22T00:37:10.428Z,1023.02786278
2018-09-22T00:37:22.835Z,1023.02786278
2018-09-22T00:37:35.237Z,1023.02786278
2018-09-22T00:37:47.643Z,1023.02786278
2018-09-22T00:38:00.024Z,1023.02786278
2018-09-22T00:38:12.443Z,1023.06172666
2018-09-22T00:38:24.842Z,1023.06172666
2018-09-22T00:38:37.251Z,1023.06172666
2018-09-22T00:38:49.666Z,1023.06172666
2018-09-22T00:39:02.095Z,1023.06172666
2018-09-22T00:39:14.777Z,1023.09559054
2018-09-22T00:39:27.179Z,1023.09559054
2018-09-22T00:39:39.566Z,1023.09559054
2018-09-22T00:39:51.970Z,1023.09559054
2018-09-22T00:40:04.361Z,1023.06172666
2018-09-22T00:40:16.766Z,1023.06172666
2018-09-22T00:40:29.173Z,1023.06172666
2018-09-22T00:40:41.645Z,1023.06172666
2018-09-22T00:40:54.036Z,1023.06172666
2018-09-22T00:41:06.425Z,1023.1633183
2018-09-22T00:41:18.808Z,1023.1633183
2018-09-22T00:41:31.206Z,1023.1633183
2018-09-22T00:41:43.632Z,1023.1633183
2018-09-22T00:41:56.049Z,1023.1633183
2018-09-22T00:42:08.558Z,1023.06172666
2018-09-22T00:42:20.954Z,1023.06172666
2018-09-22T00:42:33.386Z,1023.06172666
2018-09-22T00:42:45.787Z,1023.06172666
2018-09-22T00:42:58.254Z,1023.06172666
2018-09-22T00:43:10.626Z,1023.09559054
2018-09-22T00:43:23.011Z,1023.09559054
2018-09-22T00:43:35.401Z,1023.09559054
2018-09-22T00:43:47.798Z,1023.09559054
2018-09-22T00:44:00.183Z,1023.09559054
2018-09-22T00:44:12.592Z,1023.19718219
2018-09-22T00:44:25.010Z,1023.19718219
2018-09-22T00:44:37.388Z,1023.19718219
2018-09-22T00:44:49.780Z,1023.19718219
2018-09-22T00:45:02.180Z,1023.19718219
2018-09-22T00:45:14.674Z,1023.19718219
2018-09-22T00:45:27.092Z,1023.19718219
2018-09-22T00:45:39.512Z,1023.19718219
2018-09-22T00:45:51.912Z,1023.19718219
2018-09-22T00:46:04.311Z,1023.26490995
2018-09-22T00:46:16.789Z,1023.26490995
2018-09-22T00:46:29.240Z,1023.26490995
2018-09-22T00:46:41.626Z,1023.26490995
2018-09-22T00:46:54.040Z,1023.26490995
2018-09-22T00:47:06.666Z,1023.19718219
2018-09-22T00:47:19.158Z,1023.19718219
2018-09-22T00:47:31.550Z,1023.19718219
2018-09-22T00:47:43.946Z,1023.19718219
2018-09-22T00:47:56.335Z,1023.19718219
2018-09-22T00:48:08.797Z,1023.26490995
2018-09-22T00:48:21.179Z,1023.26490995
2018-09-22T00:48:33.567Z,1023.26490995
2018-09-22T00:48:45.953Z,1023.26490995
2018-09-22T00:48:58.331Z,1023.26490995
2018-09-22T00:49:10.745Z,1023.29877383
2018-09-22T00:49:23.552Z,1023.29877383
2018-09-22T00:49:36.002Z,1023.29877383
2018-09-22T00:49:48.428Z,1023.29877383
2018-09-22T00:50:00.811Z,1023.29877383
2018-09-22T00:50:13.219Z,1023.26490995
2018-09-22T00:50:25.632Z,1023.26490995
2018-09-22T00:50:38.158Z,1023.26490995
2018-09-22T00:50:50.612Z,1023.26490995
2018-09-22T00:51:03.182Z,1023.23104607
2018-09-22T00:51:15.602Z,1023.23104607
2018-09-22T00:51:28.045Z,1023.23104607
2018-09-22T00:51:40.431Z,1023.23104607
2018-09-22T00:51:52.815Z,1023.23104607
2018-09-22T00:52:05.296Z,1023.29877383
2018-09-22T00:52:17.718Z,1023.29877383
2018-09-22T00:52:30.321Z,1023.29877383
2018-09-22T00:52:42.705Z,1023.29877383
2018-09-22T00:52:55.077Z,1023.29877383
2018-09-22T00:53:07.463Z,1023.26490995
2018-09-22T00:53:19.910Z,1023.26490995
2018-09-22T00:53:32.305Z,1023.26490995
2018-09-22T00:53:44.695Z,1023.26490995
2018-09-22T00:53:57.081Z,1023.26490995
2018-09-22T00:54:09.484Z,1023.19718219
2018-09-22T00:54:21.905Z,1023.19718219
2018-09-22T00:54:34.598Z,1023.19718219
2018-09-22T00:54:47.020Z,1023.19718219
2018-09-22T00:54:59.399Z,1023.19718219
2018-09-22T00:55:11.829Z,1023.29877383
2018-09-22T00:55:24.224Z,1023.29877383
2018-09-22T00:55:36.684Z,1023.29877383
2018-09-22T00:55:49.184Z,1023.29877383
2018-09-22T00:56:01.700Z,1023.29877383
2018-09-22T00:56:14.358Z,1023.19718219
2018-09-22T00:56:26.736Z,1023.19718219
2018-09-22T00:56:39.158Z,1023.19718219
2018-09-22T00:56:51.717Z,1023.19718219
2018-09-22T00:57:04.243Z,1023.29877383
2018-09-22T00:57:16.708Z,1023.29877383
2018-09-22T00:57:29.294Z,1023.29877383
2018-09-22T00:57:41.693Z,1023.29877383
2018-09-22T00:57:54.095Z,1023.29877383
2018-09-22T00:58:06.515Z,1023.29877383
2018-09-22T00:58:18.984Z,1023.29877383
2018-09-22T00:58:31.558Z,1023.29877383
2018-09-22T00:58:44.072Z,1023.29877383
2018-09-22T00:58:56.515Z,1023.29877383
2018-09-22T00:59:08.951Z,1023.26490995
2018-09-22T00:59:21.401Z,1023.26490995
2018-09-22T00:59:33.788Z,1023.26490995
2018-09-22T00:59:46.220Z,1023.26490995
2018-09-22T00:59:58.603Z,1023.26490995
2018-09-22T01:00:11.135Z,1023.33263771
2018-09-22T01:00:23.588Z,1023.33263771
2018-09-22T01:00:36.060Z,1023.33263771
2018-09-22T01:00:48.656Z,1023.33263771
2018-09-22T01:01:01.079Z,1023.33263771
2018-09-22T01:01:13.504Z,1023.29877383
2018-09-22T01:01:25.910Z,1023.29877383
2018-09-22T01:01:38.333Z,1023.29877383
2018-09-22T01:01:50.737Z,1023.29877383
2018-09-22T01:02:03.225Z,1023.36650159
2018-09-22T01:02:15.637Z,1023.36650159
2018-09-22T01:02:28.064Z,1023.36650159
2018-09-22T01:02:40.496Z,1023.36650159
2018-09-22T01:02:52.886Z,1023.36650159
2018-09-22T01:03:05.387Z,1023.36650159
2018-09-22T01:03:17.899Z,1023.36650159
2018-09-22T01:03:30.296Z,1023.36650159
2018-09-22T01:03:42.932Z,1023.36650159
2018-09-22T01:03:55.337Z,1023.36650159
2018-09-22T01:04:07.780Z,1023.36650159
2018-09-22T01:04:20.173Z,1023.36650159
2018-09-22T01:04:32.721Z,1023.36650159
2018-09-22T01:04:45.131Z,1023.36650159
2018-09-22T01:04:57.558Z,1023.36650159
2018-09-22T01:05:09.963Z,1023.36650159
2018-09-22T01:05:22.457Z,1023.36650159
2018-09-22T01:05:34.869Z,1023.36650159
2018-09-22T01:05:47.321Z,1023.36650159
2018-09-22T01:05:59.719Z,1023.36650159
2018-09-22T01:06:12.144Z,1023.43422936
2018-09-22T01:06:24.567Z,1023.43422936
2018-09-22T01:06:36.986Z,1023.43422936
2018-09-22T01:06:49.396Z,1023.43422936
2018-09-22T01:07:02.001Z,1023.43422936
2018-09-22T01:07:14.401Z,1023.33263771
2018-09-22T01:07:26.820Z,1023.33263771
2018-09-22T01:07:39.221Z,1023.33263771
2018-09-22T01:07:51.658Z,1023.33263771
2018-09-22T01:08:04.064Z,1023.40036548
2018-09-22T01:08:16.493Z,1023.40036548
2018-09-22T01:08:28.888Z,1023.40036548
2018-09-22T01:08:41.281Z,1023.40036548
2018-09-22T01:08:53.803Z,1023.40036548
2018-09-22T01:09:06.228Z,1023.40036548
2018-09-22T01:09:18.649Z,1023.40036548
2018-09-22T01:09:31.043Z,1023.40036548
2018-09-22T01:09:43.433Z,1023.40036548
2018-09-22T01:09:55.843Z,1023.40036548
2018-09-22T01:10:08.290Z,1023.46809324
2018-09-22T01:10:20.918Z,1023.46809324
2018-09-22T01:10:33.403Z,1023.46809324
2018-09-22T01:10:45.784Z,1023.46809324
2018-09-22T01:10:58.196Z,1023.46809324
2018-09-22T01:11:10.604Z,1023.46809324
2018-09-22T01:11:23.182Z,1023.46809324
2018-09-22T01:11:35.581Z,1023.46809324
2018-09-22T01:11:48.022Z,1023.46809324
2018-09-22T01:12:00.433Z,1023.46809324
2018-09-22T01:12:12.844Z,1023.50195712
2018-09-22T01:12:25.379Z,1023.50195712
2018-09-22T01:12:37.786Z,1023.50195712
2018-09-22T01:12:50.193Z,1023.50195712
2018-09-22T01:13:02.608Z,1023.50195712
2018-09-22T01:13:15.068Z,1023.50195712
2018-09-22T01:13:27.457Z,1023.50195712
2018-09-22T01:13:39.861Z,1023.50195712
2018-09-22T01:13:52.261Z,1023.50195712
2018-09-22T01:14:04.661Z,1023.46809324
2018-09-22T01:14:17.078Z,1023.46809324
2018-09-22T01:14:29.500Z,1023.46809324
2018-09-22T01:14:41.941Z,1023.46809324
2018-09-22T01:14:54.356Z,1023.46809324
2018-09-22T01:15:06.756Z,1023.56968488
2018-09-22T01:15:19.344Z,1023.56968488
2018-09-22T01:15:32.292Z,1023.56968488
2018-09-22T01:15:45.187Z,1023.56968488
2018-09-22T01:15:58.547Z,1023.56968488
2018-09-22T01:16:11.539Z,1023.56968488
2018-09-22T01:16:23.960Z,1023.56968488
2018-09-22T01:16:36.353Z,1023.56968488
2018-09-22T01:16:48.923Z,1023.56968488
2018-09-22T01:17:01.313Z,1023.56968488
2018-09-22T01:17:13.732Z,1023.50195712
2018-09-22T01:17:26.117Z,1023.50195712
2018-09-22T01:17:38.547Z,1023.50195712
2018-09-22T01:17:50.953Z,1023.50195712
2018-09-22T01:18:03.379Z,1023.63741265
2018-09-22T01:18:15.798Z,1023.63741265
2018-09-22T01:18:28.220Z,1023.63741265
2018-09-22T01:18:40.865Z,1023.63741265
2018-09-22T01:18:53.283Z,1023.63741265
2018-09-22T01:19:05.723Z,1023.46809324
2018-09-22T01:19:18.148Z,1023.46809324
2018-09-22T01:19:30.560Z,1023.46809324
2018-09-22T01:19:42.966Z,1023.46809324
2018-09-22T01:19:55.365Z,1023.46809324
2018-09-22T01:20:07.782Z,1023.50195712
2018-09-22T01:20:20.200Z,1023.50195712
2018-09-22T01:20:32.600Z,1023.50195712
2018-09-22T01:20:45.025Z,1023.50195712
2018-09-22T01:20:57.409Z,1023.50195712
2018-09-22T01:21:09.808Z,1023.60354877
2018-09-22T01:21:22.204Z,1023.60354877
2018-09-22T01:21:34.619Z,1023.60354877
2018-09-22T01:21:47.016Z,1023.60354877
2018-09-22T01:21:59.459Z,1023.60354877
2018-09-22T01:22:12.277Z,1023.50195712
2018-09-22T01:22:24.670Z,1023.50195712
2018-09-22T01:22:37.073Z,1023.50195712
2018-09-22T01:22:49.515Z,1023.50195712
2018-09-22T01:23:01.926Z,1023.50195712
2018-09-22T01:23:14.321Z,1023.56968488
2018-09-22T01:23:27.024Z,1023.56968488
2018-09-22T01:23:39.562Z,1023.56968488
2018-09-22T01:23:52.014Z,1023.56968488
2018-09-22T01:24:04.403Z,1023.63741265
2018-09-22T01:24:16.813Z,1023.63741265
2018-09-22T01:24:29.472Z,1023.63741265
2018-09-22T01:24:41.893Z,1023.63741265
2018-09-22T01:24:54.312Z,1023.63741265
2018-09-22T01:25:06.747Z,1023.60354877
2018-09-22T01:25:19.144Z,1023.60354877
2018-09-22T01:25:31.552Z,1023.60354877
2018-09-22T01:25:43.941Z,1023.60354877
2018-09-22T01:25:56.377Z,1023.60354877
2018-09-22T01:26:08.808Z,1023.56968488
2018-09-22T01:26:21.218Z,1023.56968488
2018-09-22T01:26:33.656Z,1023.56968488
2018-09-22T01:26:46.051Z,1023.56968488
2018-09-22T01:26:58.436Z,1023.56968488
2018-09-22T01:27:10.837Z,1023.56968488
2018-09-22T01:27:23.273Z,1023.56968488
2018-09-22T01:27:35.677Z,1023.56968488
2018-09-22T01:27:48.050Z,1023.56968488
2018-09-22T01:28:00.434Z,1023.56968488
2018-09-22T01:28:12.823Z,1023.50195712
2018-09-22T01:28:25.232Z,1023.50195712
2018-09-22T01:28:37.619Z,1023.50195712
2018-09-22T01:28:49.999Z,1023.50195712
2018-09-22T01:29:02.453Z,1023.50195712
2018-09-22T01:29:14.938Z,1023.46809324
2018-09-22T01:29:27.421Z,1023.46809324
2018-09-22T01:29:39.847Z,1023.46809324
2018-09-22T01:29:52.263Z,1023.46809324
2018-09-22T01:30:04.668Z,1023.50195712
2018-09-22T01:30:17.207Z,1023.50195712
2018-09-22T01:30:29.657Z,1023.50195712
2018-09-22T01:30:42.130Z,1023.50195712
2018-09-22T01:30:54.593Z,1023.50195712
2018-09-22T01:31:07.064Z,1023.60354877
2018-09-22T01:31:19.500Z,1023.60354877
2018-09-22T01:31:31.880Z,1023.60354877
2018-09-22T01:31:44.315Z,1023.60354877
2018-09-22T01:31:56.783Z,1023.60354877
2018-09-22T01:32:09.271Z,1023.50195712
2018-09-22T01:32:21.734Z,1023.50195712
2018-09-22T01:32:34.222Z,1023.50195712
2018-09-22T01:32:46.686Z,1023.50195712
2018-09-22T01:32:59.096Z,1023.50195712
2018-09-22T01:33:11.505Z,1023.60354877
2018-09-22T01:33:23.916Z,1023.60354877
2018-09-22T01:33:36.342Z,1023.60354877
2018-09-22T01:33:48.707Z,1023.60354877
2018-09-22T01:34:01.095Z,1023.60354877
2018-09-22T01:34:13.494Z,1023.63741265
2018-09-22T01:34:25.881Z,1023.63741265
2018-09-22T01:34:38.284Z,1023.63741265
2018-09-22T01:34:50.738Z,1023.63741265
2018-09-22T01:35:03.172Z,1023.60354877
2018-09-22T01:35:15.712Z,1023.60354877
2018-09-22T01:35:28.142Z,1023.60354877
2018-09-22T01:35:40.552Z,1023.60354877
2018-09-22T01:35:52.957Z,1023.60354877
2018-09-22T01:36:05.364Z,1023.60354877
2018-09-22T01:36:17.785Z,1023.60354877
2018-09-22T01:36:30.201Z,1023.60354877
2018-09-22T01:36:42.589Z,1023.60354877
2018-09-22T01:36:55.027Z,1023.60354877
2018-09-22T01:37:07.518Z,1023.63741265
2018-09-22T01:37:19.937Z,1023.63741265
2018-09-22T01:37:32.387Z,1023.63741265
2018-09-22T01:37:44.807Z,1023.63741265
2018-09-22T01:37:57.235Z,1023.63741265
2018-09-22T01:38:09.617Z,1023.70514041
2018-09-22T01:38:22.016Z,1023.70514041
2018-09-22T01:38:34.435Z,1023.70514041
2018-09-22T01:38:46.839Z,1023.70514041
2018-09-22T01:38:59.242Z,1023.70514041
2018-09-22T01:39:11.819Z,1023.67127653
2018-09-22T01:39:24.208Z,1023.67127653
2018-09-22T01:39:36.630Z,1023.67127653
2018-09-22T01:39:49.101Z,1023.67127653
2018-09-22T01:40:01.491Z,1023.67127653
2018-09-22T01:40:13.872Z,1023.70514041
2018-09-22T01:40:26.265Z,1023.70514041
2018-09-22T01:40:38.670Z,1023.70514041
2018-09-22T01:40:51.065Z,1023.70514041
2018-09-22T01:41:03.477Z,1023.80673205
2018-09-22T01:41:16.607Z,1023.80673205
2018-09-22T01:41:29.012Z,1023.80673205
2018-09-22T01:41:41.472Z,1023.80673205
2018-09-22T01:41:53.898Z,1023.80673205
2018-09-22T01:42:06.345Z,1023.67127653
2018-09-22T01:42:18.737Z,1023.67127653
2018-09-22T01:42:31.147Z,1023.67127653
2018-09-22T01:42:43.566Z,1023.67127653
2018-09-22T01:42:55.962Z,1023.67127653
2018-09-22T01:43:08.366Z,1023.77286817
2018-09-22T01:43:20.769Z,1023.77286817
2018-09-22T01:43:33.175Z,1023.77286817
2018-09-22T01:43:45.584Z,1023.77286817
2018-09-22T01:43:57.972Z,1023.77286817
2018-09-22T01:44:10.396Z,1023.80673205
2018-09-22T01:44:22.806Z,1023.80673205
2018-09-22T01:44:35.208Z,1023.80673205
2018-09-22T01:44:47.604Z,1023.80673205
2018-09-22T01:44:59.997Z,1023.80673205
2018-09-22T01:45:12.449Z,1023.70514041
2018-09-22T01:45:24.856Z,1023.70514041
2018-09-22T01:45:37.254Z,1023.70514041
2018-09-22T01:45:49.653Z,1023.70514041
2018-09-22T01:46:02.044Z,1023.70514041
2018-09-22T01:46:14.683Z,1023.77286817
2018-09-22T01:46:27.081Z,1023.77286817
2018-09-22T01:46:39.490Z,1023.77286817
2018-09-22T01:46:51.891Z,1023.77286817
2018-09-22T01:47:04.403Z,1023.73900429
2018-09-22T01:47:16.806Z,1023.73900429
2018-09-22T01:47:29.206Z,1023.73900429
2018-09-22T01:47:41.600Z,1023.73900429
2018-09-22T01:47:53.980Z,1023.73900429
2018-09-22T01:48:06.562Z,1023.73900429
2018-09-22T01:48:18.958Z,1023.73900429
2018-09-22T01:48:31.367Z,1023.73900429
2018-09-22T01:48:43.756Z,1023.73900429
2018-09-22T01:48:56.154Z,1023.73900429
2018-09-22T01:49:08.565Z,1023.70514041
2018-09-22T01:49:21.126Z,1023.70514041
2018-09-22T01:49:33.522Z,1023.70514041
2018-09-22T01:49:45.936Z,1023.70514041
2018-09-22T01:49:58.426Z,1023.70514041
2018-09-22T01:50:10.839Z,1023.50195712
2018-09-22T01:50:23.252Z,1023.50195712
2018-09-22T01:50:35.769Z,1023.50195712
2018-09-22T01:50:48.165Z,1023.50195712
2018-09-22T01:51:00.554Z,1023.50195712
2018-09-22T01:51:13.214Z,1023.67127653
2018-09-22T01:51:25.607Z,1023.67127653
2018-09-22T01:51:37.982Z,1023.67127653
2018-09-22T01:51:50.494Z,1023.67127653
2018-09-22T01:52:03.102Z,1023.67127653
2018-09-22T01:52:15.514Z,1023.67127653
2018-09-22T01:52:28.492Z,1023.67127653
2018-09-22T01:52:41.654Z,1023.67127653
2018-09-22T01:52:54.050Z,1023.67127653
2018-09-22T01:53:06.448Z,1023.80673205
2018-09-22T01:53:18.860Z,1023.80673205
2018-09-22T01:53:31.256Z,1023.80673205
2018-09-22T01:53:43.648Z,1023.80673205
2018-09-22T01:53:56.024Z,1023.80673205
2018-09-22T01:54:08.421Z,1023.77286817
2018-09-22T01:54:20.828Z,1023.77286817
2018-09-22T01:54:33.209Z,1023.77286817
2018-09-22T01:54:45.611Z,1023.77286817
2018-09-22T01:54:57.992Z,1023.77286817
2018-09-22T01:55:10.436Z,1023.80673205
2018-09-22T01:55:22.837Z,1023.80673205
2018-09-22T01:55:35.239Z,1023.80673205
2018-09-22T01:55:47.645Z,1023.80673205
2018-09-22T01:56:00.062Z,1023.80673205
2018-09-22T01:56:12.755Z,1023.67127653
2018-09-22T01:56:25.291Z,1023.67127653
2018-09-22T01:56:37.686Z,1023.67127653
2018-09-22T01:56:50.087Z,1023.67127653
2018-09-22T01:57:02.468Z,1023.67127653
2018-09-22T01:57:14.863Z,1023.63741265
2018-09-22T01:57:27.276Z,1023.63741265
2018-09-22T01:57:39.814Z,1023.63741265
2018-09-22T01:57:52.212Z,1023.63741265
2018-09-22T01:58:04.625Z,1023.63741265
2018-09-22T01:58:17.019Z,1023.63741265
2018-09-22T01:58:29.406Z,1023.63741265
2018-09-22T01:58:41.874Z,1023.63741265
2018-09-22T01:58:54.318Z,1023.63741265
2018-09-22T01:59:06.720Z,1023.70514041
2018-09-22T01:59:19.141Z,1023.70514041
2018-09-22T01:59:31.531Z,1023.70514041
2018-09-22T01:59:43.942Z,1023.70514041
2018-09-22T01:59:56.370Z,1023.70514041
2018-09-22T02:00:08.779Z,1023.67127653
2018-09-22T02:00:21.373Z,1023.67127653
2018-09-22T02:00:33.806Z,1023.67127653
2018-09-22T02:00:46.237Z,1023.67127653
2018-09-22T02:00:58.672Z,1023.67127653
2018-09-22T02:01:11.240Z,1023.70514041
2018-09-22T02:01:23.671Z,1023.70514041
2018-09-22T02:01:36.061Z,1023.70514041
2018-09-22T02:01:48.463Z,1023.70514041
2018-09-22T02:02:00.884Z,1023.70514041
2018-09-22T02:02:13.297Z,1023.70514041
2018-09-22T02:02:25.705Z,1023.70514041
2018-09-22T02:02:38.112Z,1023.70514041
2018-09-22T02:02:50.528Z,1023.70514041
2018-09-22T02:03:02.923Z,1023.70514041
2018-09-22T02:03:15.356Z,1023.73900429
2018-09-22T02:03:27.760Z,1023.73900429
2018-09-22T02:03:40.302Z,1023.73900429
2018-09-22T02:03:52.691Z,1023.73900429
2018-09-22T02:04:05.090Z,1023.73900429
2018-09-22T02:04:17.506Z,1023.73900429
2018-09-22T02:04:29.931Z,1023.73900429
2018-09-22T02:04:42.318Z,1023.73900429
2018-09-22T02:04:54.724Z,1023.73900429
2018-09-22T02:05:07.130Z,1023.80673205
2018-09-22T02:05:19.554Z,1023.80673205
2018-09-22T02:05:31.936Z,1023.80673205
2018-09-22T02:05:44.335Z,1023.80673205
2018-09-22T02:05:56.735Z,1023.80673205
2018-09-22T02:06:09.192Z,1023.77286817
2018-09-22T02:06:21.585Z,1023.77286817
2018-09-22T02:06:33.969Z,1023.77286817
2018-09-22T02:06:46.376Z,1023.77286817
2018-09-22T02:06:58.777Z,1023.77286817
2018-09-22T02:07:11.245Z,1023.80673205
2018-09-22T02:07:23.637Z,1023.80673205